createdAt,value
2023-01-11T00:00:42.782Z,966.7
2023-01-11T00:02:26.494Z,964.4
2023-01-11T00:04:10.199Z,959.2
2023-01-11T00:05:53.892Z,956.9
2023-01-11T00:07:37.595Z,948.8
2023-01-11T00:09:21.309Z,942.5
2023-01-11T00:11:04.990Z,935.2
2023-01-11T00:12:48.712Z,931.5
2023-01-11T00:14:32.407Z,927.4
2023-01-11T00:16:16.107Z,928.6
2023-01-11T00:17:59.809Z,927.6
2023-01-11T00:19:43.505Z,923.6
2023-01-11T00:21:27.217Z,915.2
2023-01-11T00:23:10.925Z,908.7
2023-01-11T00:24:54.600Z,904.8
2023-01-11T00:26:38.329Z,901.3
2023-01-11T00:28:22.018Z,897.5
2023-01-11T00:30:05.763Z,896.4
2023-01-11T00:31:49.430Z,893.1
2023-01-11T00:33:33.108Z,893.6
2023-01-11T00:35:16.822Z,888.6
2023-01-11T00:37:00.540Z,883.7
2023-01-11T00:38:44.228Z,879.2
2023-01-11T00:40:27.974Z,875.3
2023-01-11T00:42:11.628Z,873
2023-01-11T00:43:55.319Z,871.9
2023-01-11T00:45:39.051Z,869
2023-01-11T00:47:22.747Z,865.7
2023-01-11T00:49:06.443Z,860.2
2023-01-11T00:50:50.125Z,856.1
2023-01-11T00:52:33.820Z,853.2
2023-01-11T00:54:17.530Z,850.4
2023-01-11T00:56:01.248Z,848.4
2023-01-11T00:57:44.942Z,845.4
2023-01-11T00:59:28.642Z,841.1
2023-01-11T01:01:12.332Z,838.5
2023-01-11T01:02:56.051Z,831
2023-01-11T01:04:39.743Z,823.8
2023-01-11T01:06:23.438Z,822.4
2023-01-11T01:08:07.144Z,823.3
2023-01-11T01:09:50.845Z,823.2
2023-01-11T01:11:34.557Z,819.9
2023-01-11T01:13:18.267Z,816.7
2023-01-11T01:15:01.944Z,816.5
2023-01-11T01:16:45.650Z,813.3
2023-01-11T01:18:29.361Z,810.3
2023-01-11T01:20:13.034Z,806.3
2023-01-11T01:21:56.747Z,803.8
2023-01-11T01:23:40.462Z,802.5
2023-01-11T01:25:24.162Z,800.2
2023-01-11T01:27:07.858Z,798.1
2023-01-11T01:28:51.565Z,796.4
2023-01-11T01:30:35.259Z,794.7
2023-01-11T01:32:18.967Z,793.3
2023-01-11T01:34:02.675Z,790.2
2023-01-11T01:35:46.396Z,789
2023-01-11T01:37:30.091Z,786.5
2023-01-11T01:39:13.764Z,783.3
2023-01-11T01:40:57.476Z,782.4
2023-01-11T01:42:41.208Z,781.4
2023-01-11T01:44:24.900Z,775.5
2023-01-11T01:46:08.579Z,773.3
2023-01-11T01:47:52.296Z,772.5
2023-01-11T01:49:35.992Z,771.2
2023-01-11T01:51:19.713Z,768.1
2023-01-11T01:53:03.402Z,766.1
2023-01-11T01:54:47.124Z,766.5
2023-01-11T01:56:30.830Z,764.1
2023-01-11T01:58:14.524Z,760
2023-01-11T01:59:58.213Z,756.6
2023-01-11T02:01:41.937Z,754.1
2023-01-11T02:03:25.690Z,750.3
2023-01-11T02:05:09.342Z,747.6
2023-01-11T02:06:53.024Z,745.7
2023-01-11T02:08:36.741Z,742.7
2023-01-11T02:10:20.440Z,742.1
2023-01-11T02:12:04.148Z,743.6
2023-01-11T02:13:47.835Z,742
2023-01-11T02:15:31.551Z,736.4
2023-01-11T02:17:15.243Z,733.5
2023-01-11T02:18:58.951Z,731.3
2023-01-11T02:20:42.655Z,728.3
2023-01-11T02:22:26.366Z,729.6
2023-01-11T02:24:10.065Z,729.1
2023-01-11T02:25:53.760Z,724.5
2023-01-11T02:27:37.456Z,718
2023-01-11T02:29:21.172Z,718.6
2023-01-11T02:31:04.862Z,718.8
2023-01-11T02:32:48.576Z,715.5
2023-01-11T02:34:32.280Z,715.3
2023-01-11T02:36:15.950Z,711.8
2023-01-11T02:37:59.684Z,709.3
2023-01-11T02:39:43.375Z,708
2023-01-11T02:41:27.062Z,703.5
2023-01-11T02:43:10.776Z,702.4
2023-01-11T02:44:54.488Z,700.6
2023-01-11T02:46:38.180Z,700.5
2023-01-11T02:48:21.873Z,699.7
2023-01-11T02:50:05.596Z,695.1
2023-01-11T02:51:49.286Z,692.6
2023-01-11T02:53:32.993Z,689.3
2023-01-11T02:55:16.670Z,687.6
2023-01-11T02:57:00.382Z,687.4
2023-01-11T02:58:44.088Z,684
2023-01-11T03:00:27.795Z,677.8
2023-01-11T03:02:11.481Z,673.4
2023-01-11T03:03:55.207Z,670
2023-01-11T03:05:38.890Z,669.3
2023-01-11T03:07:22.587Z,669
2023-01-11T03:09:06.287Z,666.9
2023-01-11T03:10:50.000Z,665.1
2023-01-11T03:12:33.700Z,665.1
2023-01-11T03:14:17.421Z,662.8
2023-01-11T03:16:01.098Z,660.6
2023-01-11T03:17:44.793Z,658.1
2023-01-11T03:19:28.520Z,653.2
2023-01-11T03:21:12.202Z,650
2023-01-11T03:22:55.902Z,645.7
2023-01-11T03:24:39.606Z,646.1
2023-01-11T03:26:23.319Z,648.1
2023-01-11T03:28:07.009Z,647.1
2023-01-11T03:29:50.709Z,645.6
2023-01-11T03:31:34.425Z,644.8
2023-01-11T03:33:18.113Z,642.6
2023-01-11T03:35:01.817Z,639.9
2023-01-11T03:36:45.525Z,638.3
2023-01-11T03:38:29.224Z,638
2023-01-11T03:40:12.920Z,635.1
2023-01-11T03:41:56.634Z,634.8
2023-01-11T03:43:40.519Z,634.9
2023-01-11T03:45:24.031Z,635.8
2023-01-11T03:47:07.745Z,635.4
2023-01-11T03:48:51.447Z,633.7
2023-01-11T03:50:35.145Z,631.5
2023-01-11T03:52:18.850Z,631.6
2023-01-11T03:54:02.564Z,629.6
2023-01-11T03:55:46.245Z,630.2
2023-01-11T03:57:29.945Z,630.5
2023-01-11T03:59:13.656Z,628.3
2023-01-11T04:00:57.378Z,621.5
2023-01-11T04:02:41.060Z,618.9
2023-01-11T04:04:24.750Z,620.8
2023-01-11T04:06:08.462Z,621.9
2023-01-11T04:07:52.162Z,621.8
2023-01-11T04:09:35.872Z,619.4
2023-01-11T04:11:19.563Z,615
2023-01-11T04:13:03.274Z,611.2
2023-01-11T04:14:46.965Z,608.6
2023-01-11T04:16:30.671Z,610.2
2023-01-11T04:18:14.376Z,609.7
2023-01-11T04:19:58.080Z,608.9
2023-01-11T04:21:41.789Z,609
2023-01-11T04:23:25.484Z,607.2
2023-01-11T04:25:09.181Z,609.3
2023-01-11T04:26:52.882Z,606.8
2023-01-11T04:28:36.587Z,605.5
2023-01-11T04:30:20.286Z,606.8
2023-01-11T04:32:03.999Z,606.4
2023-01-11T04:33:47.710Z,605.8
2023-01-11T04:35:31.403Z,608.6
2023-01-11T04:37:15.120Z,607.6
2023-01-11T04:38:58.821Z,608.8
2023-01-11T04:40:42.524Z,609.5
2023-01-11T04:42:26.209Z,609.1
2023-01-11T04:44:09.936Z,608.5
2023-01-11T04:45:53.621Z,605.1
2023-01-11T04:47:37.382Z,604.9
2023-01-11T04:49:21.053Z,601.5
2023-01-11T04:51:04.734Z,600.2
2023-01-11T04:52:48.450Z,594.5
2023-01-11T04:54:32.151Z,592.7
2023-01-11T04:56:15.846Z,592.3
2023-01-11T04:57:59.551Z,588.9
2023-01-11T04:59:43.255Z,588
2023-01-11T05:01:26.951Z,589.3
2023-01-11T05:03:10.663Z,588.6
2023-01-11T05:04:54.361Z,588.5
2023-01-11T05:06:38.068Z,586.5
2023-01-11T05:08:21.775Z,587.6
2023-01-11T05:10:05.489Z,587.5
2023-01-11T05:11:49.178Z,589
2023-01-11T05:13:32.885Z,588.1
2023-01-11T05:15:16.588Z,584.4
2023-01-11T05:17:00.307Z,584.8
2023-01-11T05:18:43.981Z,582.8
2023-01-11T05:20:27.689Z,579.7
2023-01-11T05:22:11.458Z,580.3
2023-01-11T05:23:55.113Z,579.6
2023-01-11T05:25:38.824Z,577.2
2023-01-11T05:27:22.517Z,576
2023-01-11T05:29:06.212Z,575.6
2023-01-11T05:30:49.917Z,575.8
2023-01-11T05:32:33.619Z,575.1
2023-01-11T05:34:17.314Z,575.3
2023-01-11T05:36:01.027Z,575.4
2023-01-11T05:37:44.731Z,577.2
2023-01-11T05:39:28.456Z,576.1
2023-01-11T05:41:12.131Z,580.6
2023-01-11T05:42:55.875Z,581
2023-01-11T05:44:39.540Z,584.6
2023-01-11T05:46:23.235Z,585.7
2023-01-11T05:48:06.943Z,588.1
2023-01-11T05:49:50.658Z,592.5
2023-01-11T05:51:34.357Z,594.2
2023-01-11T05:53:18.063Z,593.1
2023-01-11T05:55:01.754Z,590.9
2023-01-11T05:56:45.472Z,589.6
2023-01-11T05:58:29.203Z,588.5
2023-01-11T06:00:12.924Z,586.4
2023-01-11T06:01:56.583Z,585.1
2023-01-11T06:03:40.271Z,581.3
2023-01-11T06:05:23.962Z,581.4
2023-01-11T06:07:07.675Z,580.5
2023-01-11T06:08:51.415Z,580.2
2023-01-11T06:10:35.088Z,579.9
2023-01-11T06:12:18.796Z,578.4
2023-01-11T06:14:02.526Z,576.5
2023-01-11T06:15:46.186Z,577.2
2023-01-11T06:17:29.890Z,577
2023-01-11T06:19:13.591Z,577
2023-01-11T06:20:57.299Z,579.2
2023-01-11T06:22:41.013Z,579.9
2023-01-11T06:24:24.696Z,578.3
2023-01-11T06:26:08.408Z,580.1
2023-01-11T06:27:52.133Z,579.7
2023-01-11T06:29:35.814Z,577.2
2023-01-11T06:31:19.509Z,578
2023-01-11T06:33:03.215Z,578.8
2023-01-11T06:34:46.906Z,580.4
2023-01-11T06:36:30.621Z,580
2023-01-11T06:38:14.359Z,577.5
2023-01-11T06:39:58.020Z,578.7
2023-01-11T06:41:41.727Z,577.9
2023-01-11T06:43:25.433Z,575.7
2023-01-11T06:45:09.145Z,576.4
2023-01-11T06:46:52.868Z,577.3
2023-01-11T06:48:36.621Z,575.1
2023-01-11T06:50:20.247Z,574.7
2023-01-11T06:52:03.971Z,574.9
2023-01-11T06:53:47.696Z,572.2
2023-01-11T06:55:31.330Z,572.6
2023-01-11T06:57:15.085Z,572.6
2023-01-11T06:58:58.797Z,572
2023-01-11T07:00:42.459Z,571.6
2023-01-11T07:02:26.163Z,568.4
2023-01-11T07:04:09.849Z,573.6
2023-01-11T07:05:53.560Z,586.2
2023-01-11T07:07:37.271Z,595.3
2023-01-11T07:09:21.009Z,607.1
2023-01-11T07:11:04.683Z,618.6
2023-01-11T07:12:48.367Z,622.2
2023-01-11T07:14:32.093Z,621.7
2023-01-11T07:16:15.774Z,623.7
2023-01-11T07:17:59.500Z,626.4
2023-01-11T07:19:43.158Z,627.9
2023-01-11T07:21:26.876Z,630.4
2023-01-11T07:23:10.557Z,632.7
2023-01-11T07:24:54.264Z,637.7
2023-01-11T07:26:37.972Z,639.2
2023-01-11T07:28:21.679Z,643.2
2023-01-11T07:30:05.368Z,646.9
2023-01-11T07:31:49.138Z,649.1
2023-01-11T07:38:43.882Z,652.2
2023-01-11T07:40:27.631Z,651.9
2023-01-11T07:42:11.348Z,654.8
2023-01-11T07:43:54.966Z,658.4
2023-01-11T07:45:38.748Z,661.8
2023-01-11T07:47:22.381Z,665.2
2023-01-11T07:49:06.249Z,667.3
2023-01-11T07:50:49.790Z,673.1
2023-01-11T07:52:33.563Z,676.5
2023-01-11T07:54:17.204Z,676.4
2023-01-11T07:56:00.883Z,678.4
2023-01-11T07:57:44.583Z,684.4
2023-01-11T07:59:28.436Z,687.6
2023-01-11T08:01:12.009Z,690.8
2023-01-11T08:02:55.705Z,693.8
2023-01-11T08:04:39.393Z,695.3
2023-01-11T08:06:23.096Z,701.8
2023-01-11T08:08:06.932Z,705
2023-01-11T08:09:50.569Z,705.2
2023-01-11T08:11:34.207Z,706.9
2023-01-11T08:13:17.934Z,709.1
2023-01-11T08:15:01.661Z,712.2
2023-01-11T08:16:45.333Z,711.7
2023-01-11T08:18:29.034Z,710.4
2023-01-11T08:20:12.740Z,711.5
2023-01-11T08:21:56.505Z,714.3
2023-01-11T08:23:40.154Z,718.5
2023-01-11T08:25:23.846Z,718.9
2023-01-11T08:27:07.554Z,718.9
2023-01-11T08:28:51.296Z,719.1
2023-01-11T08:30:35.023Z,719.3
2023-01-11T08:32:18.672Z,720.5
2023-01-11T08:34:02.381Z,720.2
2023-01-11T08:35:46.152Z,720.7
2023-01-11T08:37:29.772Z,722.2
2023-01-11T08:39:13.578Z,717.9
2023-01-11T08:40:57.170Z,711.9
2023-01-11T08:42:40.889Z,710.6
2023-01-11T08:44:24.580Z,707.1
2023-01-11T08:46:08.280Z,704.3
2023-01-11T08:47:51.984Z,702.8
2023-01-11T08:49:35.796Z,704.3
2023-01-11T08:51:19.408Z,703.2
2023-01-11T08:53:03.089Z,702.7
2023-01-11T08:54:46.877Z,699.5
2023-01-11T08:56:30.494Z,697.5
2023-01-11T08:58:14.310Z,696
2023-01-11T08:59:58.024Z,693.3
2023-01-11T09:01:41.612Z,689.9
2023-01-11T09:03:25.327Z,687.2
2023-01-11T09:05:09.008Z,683.9
2023-01-11T09:06:52.728Z,682.1
2023-01-11T09:08:36.407Z,683.3
2023-01-11T09:10:20.143Z,684
2023-01-11T09:12:03.907Z,686.7
2023-01-11T09:13:47.500Z,692.5
2023-01-11T09:15:31.259Z,696.1
2023-01-11T09:17:14.928Z,696.4
2023-01-11T09:18:58.733Z,683.9
2023-01-11T09:20:42.317Z,664.1
2023-01-11T09:22:26.089Z,650.3
2023-01-11T09:24:09.711Z,646.5
2023-01-11T09:25:53.425Z,645.3
2023-01-11T09:27:37.174Z,643.6
2023-01-11T09:29:20.819Z,642.9
2023-01-11T09:31:04.516Z,644.4
2023-01-11T09:32:48.239Z,645.4
2023-01-11T09:34:31.927Z,644.3
2023-01-11T09:36:15.623Z,644.5
2023-01-11T09:37:59.341Z,646.3
2023-01-11T09:39:43.032Z,644.6
2023-01-11T09:41:26.771Z,642.1
2023-01-11T09:43:10.476Z,643.5
2023-01-11T09:44:54.160Z,643.3
2023-01-11T09:46:37.840Z,642.9
2023-01-11T09:48:21.539Z,645.4
2023-01-11T09:50:05.324Z,640.7
2023-01-11T09:51:48.936Z,638.5
2023-01-11T09:53:32.706Z,637.1
2023-01-11T09:55:16.353Z,636.9
2023-01-11T09:57:00.268Z,637.8
2023-01-11T09:58:43.782Z,636.4
2023-01-11T10:00:27.463Z,638.1
2023-01-11T10:02:11.149Z,638.6
2023-01-11T10:03:54.938Z,637.5
2023-01-11T10:05:38.551Z,637.1
2023-01-11T10:07:22.322Z,639.9
2023-01-11T10:09:05.955Z,646
2023-01-11T10:18:20.512Z,652.9
2023-01-11T10:18:21.535Z,659.6
2023-01-11T10:18:21.903Z,658.9
2023-01-11T10:18:21.944Z,664.6
2023-01-11T10:18:21.956Z,661.3
2023-01-11T10:19:28.165Z,669.2
2023-01-11T10:21:11.868Z,673
2023-01-11T10:22:55.561Z,679.1
2023-01-11T10:24:39.253Z,682.7
2023-01-11T10:26:23.019Z,686.1
2023-01-11T10:28:06.680Z,687.6
2023-01-11T10:29:50.450Z,690.3
2023-01-11T10:31:34.116Z,689.8
2023-01-11T10:33:17.767Z,692.6
2023-01-11T10:35:01.610Z,694.9
2023-01-11T10:36:45.167Z,697.9
2023-01-11T10:38:28.889Z,697.1
2023-01-11T10:40:12.700Z,696.8
2023-01-11T10:41:56.314Z,699.7
2023-01-11T10:43:40.114Z,704.1
2023-01-11T10:45:23.898Z,706.9
2023-01-11T10:47:07.568Z,714.1
2023-01-11T10:48:51.268Z,715.1
2023-01-11T10:50:34.898Z,716.2
2023-01-11T10:52:18.491Z,732.8
2023-01-11T10:54:02.393Z,786.5
2023-01-11T10:55:46.107Z,805.8
2023-01-11T10:57:29.774Z,842.6
2023-01-11T10:59:13.447Z,869.1
2023-01-11T11:00:57.162Z,868.3
2023-01-11T11:02:40.887Z,876.6
2023-01-11T11:04:24.545Z,877.1
2023-01-11T11:06:08.444Z,871.6
2023-01-11T11:07:51.961Z,856.3
2023-01-11T11:09:35.649Z,845.5
2023-01-11T11:11:19.218Z,831.3
2023-01-11T11:13:03.154Z,826.6
2023-01-11T11:14:46.730Z,830.7
2023-01-11T11:16:30.479Z,835.7
2023-01-11T11:18:14.333Z,848.8
2023-01-11T11:21:41.631Z,862.3
2023-01-11T11:23:25.321Z,867.5
2023-01-11T11:25:08.996Z,868.2
2023-01-11T11:26:52.727Z,874.5
2023-01-11T11:28:36.410Z,877.2
2023-01-11T11:30:19.936Z,878.7
2023-01-11T11:32:03.741Z,880.4
2023-01-11T11:33:47.520Z,880.1
2023-01-11T11:35:31.225Z,879.5
2023-01-11T11:37:14.927Z,884.2
2023-01-11T11:38:58.593Z,887.7
2023-01-11T11:40:42.222Z,889.3
2023-01-11T11:42:25.848Z,892.8
2023-01-11T11:44:09.694Z,885.9
2023-01-11T11:45:53.400Z,860.8
2023-01-11T11:47:37.092Z,844.4
2023-01-11T11:49:20.906Z,834.6
2023-01-11T11:51:04.527Z,832.1
2023-01-11T11:52:48.102Z,833.3
2023-01-11T11:54:31.764Z,838.4
2023-01-11T11:56:15.468Z,851.7
2023-01-11T11:57:59.192Z,870.6
2023-01-11T11:59:42.882Z,875.7
2023-01-11T12:01:26.581Z,878.8
2023-01-11T12:03:10.279Z,885.5
2023-01-11T12:04:53.995Z,882
2023-01-11T12:06:37.695Z,862.4
2023-01-11T12:08:21.387Z,937.1
2023-01-11T12:10:05.075Z,971.8
2023-01-11T12:11:48.790Z,972.6
2023-01-11T12:13:32.491Z,978.1
2023-01-11T12:15:16.201Z,988.6
2023-01-11T12:16:59.896Z,999
2023-01-11T12:18:43.622Z,1001.9
2023-01-11T12:20:27.298Z,1006.7
2023-01-11T12:22:10.995Z,1017.8
2023-01-11T12:23:54.694Z,1034.3
2023-01-11T12:25:38.386Z,1040.6
2023-01-11T12:27:22.169Z,1052
2023-01-11T12:29:05.820Z,1059.5
2023-01-11T12:30:49.494Z,1070.3
2023-01-11T12:32:33.196Z,1079.9
2023-01-11T12:34:16.903Z,1087.6
2023-01-11T12:36:00.623Z,1090.9
2023-01-11T12:37:44.304Z,1098.2
2023-01-11T12:39:28.003Z,1103.3
2023-01-11T12:41:11.721Z,1107.1
2023-01-11T12:42:55.429Z,1122.4
2023-01-11T12:44:39.101Z,1113.2
2023-01-11T12:46:22.821Z,1099.8
2023-01-11T12:48:06.522Z,1097.2
2023-01-11T12:49:50.214Z,1086.2
2023-01-11T12:51:33.907Z,1076.7
2023-01-11T12:53:17.627Z,1064.6
2023-01-11T12:55:01.312Z,1036.6
2023-01-11T12:56:45.024Z,1008.9
2023-01-11T12:58:28.736Z,1009.4
2023-01-11T13:00:12.411Z,1014.6
2023-01-11T13:01:56.142Z,1019
2023-01-11T13:03:39.837Z,1029.7
2023-01-11T13:05:23.517Z,1048.8
2023-01-11T13:07:07.239Z,1053.1
2023-01-11T13:08:50.935Z,1056.2
2023-01-11T13:10:34.637Z,1060.7
2023-01-11T13:12:18.333Z,1066.9
2023-01-11T13:14:02.039Z,1070
2023-01-11T13:15:45.737Z,1075
2023-01-11T13:17:29.438Z,1077.2
2023-01-11T13:19:13.144Z,1060
2023-01-11T13:20:56.853Z,978.9
2023-01-11T13:22:40.539Z,986.9
2023-01-11T13:24:24.244Z,988.3
2023-01-11T13:26:07.937Z,990.2
2023-01-11T13:27:51.654Z,994.4
2023-01-11T13:29:35.354Z,1000.3
2023-01-11T13:31:19.031Z,1010.3
2023-01-11T13:33:02.741Z,1031.3
2023-01-11T13:34:46.458Z,1053.6
2023-01-11T13:36:30.166Z,1064.1
2023-01-11T13:38:13.849Z,1067.3
2023-01-11T13:39:57.561Z,1059.2
2023-01-11T13:41:41.261Z,1039.4
2023-01-11T13:43:24.975Z,1024
2023-01-11T13:45:08.670Z,1016
2023-01-11T13:46:52.376Z,1010.3
2023-01-11T13:48:36.250Z,1011.2
2023-01-11T13:50:19.769Z,1007.5
2023-01-11T13:52:03.467Z,1003.2
2023-01-11T13:53:47.185Z,1000.5
2023-01-11T13:55:30.884Z,1004.6
2023-01-11T13:57:14.581Z,1014
2023-01-11T13:58:58.278Z,1032.6
2023-01-11T14:00:41.988Z,1048
2023-01-11T14:02:25.702Z,1055.2
2023-01-11T14:04:09.377Z,1060.8
2023-01-11T14:05:53.073Z,1061.8
2023-01-11T14:07:36.778Z,1057.3
2023-01-11T14:09:20.497Z,1045.1
2023-01-11T14:11:03.862Z,1031.4
2023-01-11T14:12:47.584Z,1019.2
2023-01-11T14:14:31.284Z,1009.8
2023-01-11T14:16:14.992Z,1007.7
2023-01-11T14:17:58.672Z,1010.4
2023-01-11T14:19:42.390Z,1011
2023-01-11T14:21:26.090Z,1004.9
2023-01-11T14:23:09.798Z,1003.2
2023-01-11T14:24:53.487Z,996.7
2023-01-11T14:26:37.183Z,991.9
2023-01-11T14:28:20.890Z,988.6
2023-01-11T14:30:04.595Z,988.5
2023-01-11T14:31:48.293Z,988
2023-01-11T14:33:32.053Z,986.1
2023-01-11T14:35:15.724Z,985
2023-01-11T14:36:59.432Z,983
2023-01-11T14:38:43.121Z,978.8
2023-01-11T14:40:26.813Z,973.9
2023-01-11T14:42:10.515Z,967.3
2023-01-11T14:43:54.234Z,961.6
2023-01-11T14:45:37.927Z,958.1
2023-01-11T14:47:21.623Z,951.5
2023-01-11T14:49:05.334Z,941.5
2023-01-11T14:50:49.026Z,936.8
2023-01-11T14:52:32.739Z,934.9
2023-01-11T14:54:16.456Z,929.2
2023-01-11T14:56:00.150Z,917
2023-01-11T14:57:43.840Z,924.7
2023-01-11T14:59:27.553Z,932
2023-01-11T15:01:11.233Z,934.1
2023-01-11T15:02:54.966Z,934.2
2023-01-11T15:04:38.655Z,946.2
2023-01-11T15:06:22.344Z,952.5
2023-01-11T15:08:06.062Z,955.2
2023-01-11T15:09:49.756Z,951.8
2023-01-11T15:11:33.442Z,948
2023-01-11T15:13:17.151Z,944.4
2023-01-11T15:15:00.854Z,943.9
2023-01-11T15:16:44.581Z,946.4
2023-01-11T15:18:28.256Z,948.2
2023-01-11T15:20:11.965Z,948.2
2023-01-11T15:21:55.663Z,948.8
2023-01-11T15:23:39.366Z,951.8
2023-01-11T15:25:23.057Z,952.5
2023-01-11T15:27:06.753Z,956.1
2023-01-11T15:28:50.469Z,953.7
2023-01-11T15:30:34.185Z,954.4
2023-01-11T15:32:38.110Z,957.6
2023-01-11T15:34:01.573Z,959.8
2023-01-11T15:35:45.285Z,958.4
2023-01-11T15:37:28.995Z,959.2
2023-01-11T15:39:12.675Z,958.7
2023-01-11T15:40:56.387Z,957
2023-01-11T15:42:40.077Z,955.9
2023-01-11T15:44:23.796Z,949.7
2023-01-11T15:46:07.489Z,938
2023-01-11T15:47:51.209Z,933.6
2023-01-11T15:49:34.914Z,932.9
2023-01-11T15:51:18.609Z,932.2
2023-01-11T15:53:02.302Z,931.1
2023-01-11T15:54:45.987Z,929.1
2023-01-11T15:56:29.728Z,927.7
2023-01-11T15:58:13.416Z,927.2
2023-01-11T15:59:57.118Z,928.6
2023-01-11T16:01:40.816Z,933.2
2023-01-11T16:03:24.578Z,936.4
2023-01-11T16:05:08.217Z,938.6
2023-01-11T16:06:51.928Z,940.7
2023-01-11T16:08:35.629Z,940.3
2023-01-11T16:10:19.323Z,939
2023-01-11T16:12:03.028Z,937.9
2023-01-11T16:13:46.736Z,934.6
2023-01-11T16:15:30.445Z,933.6
2023-01-11T16:17:14.141Z,935.6
2023-01-11T16:18:57.838Z,936.2
2023-01-11T16:20:41.546Z,938.5
2023-01-11T16:22:25.248Z,935.1
2023-01-11T16:24:09.018Z,934.8
2023-01-11T16:25:52.643Z,933.5
2023-01-11T16:27:36.339Z,934.6
2023-01-11T16:29:20.071Z,933.6
2023-01-11T16:31:03.783Z,931.9
2023-01-11T16:32:47.448Z,931.5
2023-01-11T16:34:31.150Z,933.8
2023-01-11T16:36:14.861Z,933.7
2023-01-11T16:37:58.573Z,930.3
2023-01-11T16:39:42.262Z,930
2023-01-11T16:41:25.976Z,934.2
2023-01-11T16:43:09.671Z,937.9
2023-01-11T16:44:53.385Z,943.2
2023-01-11T16:46:37.082Z,947.4
2023-01-11T16:48:20.793Z,954.7
2023-01-11T16:50:04.490Z,970.2
2023-01-11T16:51:48.183Z,992.2
2023-01-11T16:53:31.904Z,1000.6
2023-01-11T16:55:15.601Z,1003.2
2023-01-11T16:56:59.307Z,1001.8
2023-01-11T16:58:43.005Z,1004.2
2023-01-11T17:00:26.717Z,1000.6
2023-01-11T17:02:10.427Z,1000.4
2023-01-11T17:03:54.124Z,999.7
2023-01-11T17:05:37.812Z,1003.4
2023-01-11T17:07:21.522Z,1009.8
2023-01-11T17:09:05.214Z,1012.8
2023-01-11T17:10:48.922Z,1013.5
2023-01-11T17:12:32.621Z,1017.7
2023-01-11T17:14:16.313Z,1021.3
2023-01-11T17:16:00.056Z,1024.3
2023-01-11T17:17:43.788Z,1026.2
2023-01-11T17:19:27.435Z,1026.3
2023-01-11T17:21:11.126Z,1027.8
2023-01-11T17:22:54.823Z,1024.5
2023-01-11T17:24:38.545Z,1024.6
2023-01-11T17:26:22.229Z,1026.5
2023-01-11T17:29:49.687Z,1029.9
2023-01-11T17:31:33.473Z,1031.5
2023-01-11T17:33:17.050Z,1035.4
2023-01-11T17:35:00.724Z,1035.1
2023-01-11T17:36:44.442Z,1032.1
2023-01-11T17:38:28.156Z,1029.8
2023-01-11T17:40:11.924Z,1032
2023-01-11T17:41:55.580Z,1033.7
2023-01-11T17:43:39.233Z,1035.4
2023-01-11T17:45:22.972Z,1039.5
2023-01-11T17:47:06.645Z,1042.8
2023-01-11T17:48:50.354Z,1045.9
2023-01-11T17:50:34.037Z,1045
2023-01-11T17:52:17.750Z,1047.1
2023-01-11T17:54:01.451Z,1050.8
2023-01-11T17:55:45.157Z,1052.6
2023-01-11T17:57:28.863Z,1049
2023-01-11T17:59:12.556Z,1047.8
2023-01-11T18:00:56.263Z,1045.9
2023-01-11T18:02:39.979Z,1045.9
2023-01-11T18:04:23.673Z,1050.5
2023-01-11T18:06:07.387Z,1055.2
2023-01-11T18:07:51.079Z,1057.7
2023-01-11T18:09:34.767Z,1059.9
2023-01-11T18:11:18.469Z,1059.3
2023-01-11T18:13:02.186Z,1059.4
2023-01-11T18:14:45.878Z,1057.6
2023-01-11T18:16:29.575Z,1058
2023-01-11T18:18:13.281Z,1053.8
2023-01-11T18:19:56.983Z,1049.8
2023-01-11T18:21:40.688Z,1049.4
2023-01-11T18:23:24.383Z,1052.6
2023-01-11T18:25:08.076Z,1058
2023-01-11T18:26:51.790Z,1058.2
2023-01-11T18:28:35.471Z,1058
2023-01-11T18:30:19.193Z,1055.8
2023-01-11T18:32:02.896Z,1055.2
2023-01-11T18:33:46.614Z,1054.2
2023-01-11T18:35:30.275Z,1061.6
2023-01-11T18:37:13.990Z,1070.8
2023-01-11T18:38:57.703Z,1071.3
2023-01-11T18:40:41.427Z,1075
2023-01-11T18:42:25.155Z,1077.8
2023-01-11T18:44:08.800Z,1079.4
2023-01-11T18:45:52.506Z,1081.2
2023-01-11T18:47:36.227Z,1085
2023-01-11T18:49:19.901Z,1085.1
2023-01-11T18:51:03.647Z,1089
2023-01-11T18:52:47.315Z,1090.5
2023-01-11T18:54:31.016Z,1091.8
2023-01-11T18:56:14.709Z,1094.6
2023-01-11T18:57:58.429Z,1091.6
2023-01-11T18:59:42.137Z,1089.4
2023-01-11T19:01:25.825Z,1090.7
2023-01-11T19:03:09.580Z,1095
2023-01-11T19:04:53.234Z,1094.8
2023-01-11T19:06:36.936Z,1090
2023-01-11T19:08:20.629Z,1086.8
2023-01-11T19:10:04.341Z,1083.3
2023-01-11T19:11:48.124Z,1081
2023-01-11T19:13:31.742Z,1078.6
2023-01-11T19:15:15.436Z,1078
2023-01-11T19:16:59.142Z,1075.1
2023-01-11T19:18:42.847Z,1074
2023-01-11T19:20:26.588Z,1071.3
2023-01-11T19:22:10.261Z,1072.1
2023-01-11T19:23:53.961Z,1076.5
2023-01-11T19:25:37.652Z,1075.2
2023-01-11T19:27:21.347Z,1077.2
2023-01-11T19:29:05.066Z,1078.5
2023-01-11T19:30:48.808Z,1079.4
2023-01-11T19:32:32.488Z,1081.9
2023-01-11T19:34:16.161Z,1082.5
2023-01-11T19:35:59.874Z,1081.7
2023-01-11T19:37:43.620Z,1081.3
2023-01-11T19:39:27.306Z,1082.6
2023-01-11T19:41:10.970Z,1083.9
2023-01-11T19:42:54.669Z,1083.3
2023-01-11T19:44:38.385Z,1082.2
2023-01-11T19:46:22.094Z,1081.5
2023-01-11T19:48:05.781Z,1079.9
2023-01-11T19:49:49.491Z,1079.6
2023-01-11T19:51:33.275Z,1083.6
2023-01-11T19:53:16.894Z,1087.1
2023-01-11T19:55:00.654Z,1087
2023-01-11T19:56:44.299Z,1086
2023-01-11T19:58:27.991Z,1087.2
2023-01-11T20:00:11.678Z,1089.4
2023-01-11T20:01:55.390Z,1092.3
2023-01-11T20:03:39.085Z,1096.5
2023-01-11T20:05:22.791Z,1097.6
2023-01-11T20:07:06.501Z,1098
2023-01-11T20:08:50.197Z,1099.5
2023-01-11T20:10:33.913Z,1105.9
2023-01-11T20:12:17.606Z,1117
2023-01-11T20:15:45.017Z,1128.2
2023-01-11T20:17:28.725Z,1133.7
2023-01-11T20:19:12.415Z,1134
2023-01-11T20:20:56.100Z,1132.9
2023-01-11T20:22:39.827Z,1131.3
2023-01-11T20:24:23.527Z,1130.8
2023-01-11T20:26:07.243Z,1128.7
2023-01-11T20:27:50.939Z,1126.4
2023-01-11T20:29:34.615Z,1129.5
2023-01-11T20:31:18.328Z,1128.2
2023-01-11T20:33:02.034Z,1125.7
2023-01-11T20:34:45.731Z,1124.8
2023-01-11T20:36:29.574Z,1121.3
2023-01-11T20:38:13.132Z,1119.2
2023-01-11T20:39:56.847Z,1115.6
2023-01-11T20:41:40.539Z,1115.7
2023-01-11T20:43:24.249Z,1117.7
2023-01-11T20:45:07.952Z,1116.8
2023-01-11T20:46:51.647Z,1111.5
2023-01-11T20:48:35.345Z,1110.7
2023-01-11T20:50:19.045Z,1109.3
2023-01-11T20:52:02.797Z,1111.7
2023-01-11T20:53:46.450Z,1112.1
2023-01-11T20:55:30.140Z,1110.3
2023-01-11T20:57:13.850Z,1111.9
2023-01-11T20:58:57.571Z,1113
2023-01-11T21:00:41.268Z,1114.5
2023-01-11T21:02:24.964Z,1120.6
2023-01-11T21:04:08.661Z,1125.3
2023-01-11T21:05:52.368Z,1125.7
2023-01-11T21:07:36.055Z,1126.3
2023-01-11T21:09:19.801Z,1130.3
2023-01-11T21:11:03.465Z,1134.9
2023-01-11T21:12:48.372Z,1138.8
2023-01-11T21:14:30.861Z,1139.5
2023-01-11T21:16:14.552Z,1146.5
2023-01-11T21:17:58.281Z,1146.1
2023-01-11T21:19:41.983Z,1144.2
2023-01-11T21:21:25.707Z,1143.7
2023-01-11T21:23:09.371Z,1147.5
2023-01-11T21:24:53.107Z,1148.5
2023-01-11T21:26:36.854Z,1146.4
2023-01-11T21:28:20.588Z,1147
2023-01-11T21:30:04.246Z,1149.1
2023-01-11T21:31:47.923Z,1152.2
2023-01-11T21:33:31.576Z,1154.3
2023-01-11T21:35:15.301Z,1155.2
2023-01-11T21:36:58.980Z,1152.9
2023-01-11T21:38:42.683Z,1154
2023-01-11T21:40:26.384Z,1156.5
2023-01-11T21:42:10.080Z,1158.6
2023-01-11T21:43:53.777Z,1159.7
2023-01-11T21:45:37.484Z,1160.1
2023-01-11T21:47:21.198Z,1163.7
2023-01-11T21:49:04.908Z,1162.1
2023-01-11T21:50:48.615Z,1159.4
2023-01-11T21:52:32.318Z,1155.6
2023-01-11T21:54:15.999Z,1148.5
2023-01-11T21:55:59.716Z,1145.1
2023-01-11T21:57:43.408Z,1138.6
2023-01-11T21:59:27.126Z,1127.4
2023-01-11T22:01:10.805Z,1124.5
2023-01-11T22:02:54.512Z,1121.6
2023-01-11T22:04:38.278Z,1124
2023-01-11T22:06:21.916Z,1128.2
2023-01-11T22:08:05.601Z,1130.1
2023-01-11T22:09:49.311Z,1128.9
2023-01-11T22:11:33.019Z,1127.1
2023-01-11T22:13:16.729Z,1123.4
2023-01-11T22:15:00.401Z,1115.8
2023-01-11T22:16:44.142Z,1104.7
2023-01-11T22:18:27.822Z,1091.9
2023-01-11T22:20:11.531Z,1085.7